sensor_id;sensor_type;location;lat;lon;timestamp;pressure;altitude;pressure_sealevel;temperature;humidity
11643;BME280;5877;50.930;6.918;2022-11-30T00:00:25;101601.19;;;7.81;82.48
11643;BME280;5877;50.930;6.918;2022-11-30T00:05:17;101588.94;;;7.82;82.14
11643;BME280;5877;50.930;6.918;2022-11-30T00:10:09;101597.41;;;7.84;81.93
11643;BME280;5877;50.930;6.918;2022-11-30T00:15:01;101430.78;;;6.77;82.04
11643;BME280;5877;50.930;6.918;2022-11-30T00:19:52;101594.88;;;7.76;81.62
11643;BME280;5877;50.930;6.918;2022-11-30T00:24:44;101587.34;;;7.73;81.74
11643;BME280;5877;50.930;6.918;2022-11-30T00:29:36;101595.69;;;7.76;81.45
11643;BME280;5877;50.930;6.918;2022-11-30T00:34:28;101588.00;;;7.75;81.66
11643;BME280;5877;50.930;6.918;2022-11-30T00:39:19;101543.22;;;7.39;82.16
11643;BME280;5877;50.930;6.918;2022-11-30T00:44:11;101591.94;;;7.71;82.09
11643;BME280;5877;50.930;6.918;2022-11-30T00:49:02;101596.34;;;7.70;81.67
11643;BME280;5877;50.930;6.918;2022-11-30T00:53:54;101565.75;;;7.40;81.85
11643;BME280;5877;50.930;6.918;2022-11-30T00:58:45;101532.50;;;7.18;82.81
11643;BME280;5877;50.930;6.918;2022-11-30T01:03:37;101517.34;;;7.05;83.28
11643;BME280;5877;50.930;6.918;2022-11-30T01:08:29;101598.69;;;7.49;82.92
11643;BME280;5877;50.930;6.918;2022-11-30T01:13:21;101588.56;;;7.46;83.14
11643;BME280;5877;50.930;6.918;2022-11-30T01:18:12;101450.88;;;6.52;83.06
11643;BME280;5877;50.930;6.918;2022-11-30T01:23:04;101569.19;;;7.24;82.98
11643;BME280;5877;50.930;6.918;2022-11-30T01:27:55;101479.88;;;6.81;83.26
11643;BME280;5877;50.930;6.918;2022-11-30T01:32:47;101595.56;;;7.62;82.76
11643;BME280;5877;50.930;6.918;2022-11-30T01:37:38;101545.03;;;7.30;82.79
11643;BME280;5877;50.930;6.918;2022-11-30T01:42:30;101542.75;;;7.27;82.42
11643;BME280;5877;50.930;6.918;2022-11-30T01:47:35;101550.91;;;7.32;82.36
11643;BME280;5877;50.930;6.918;2022-11-30T01:52:33;101518.97;;;7.06;83.24
11643;BME280;5877;50.930;6.918;2022-11-30T01:57:38;101597.22;;;7.55;83.54
11643;BME280;5877;50.930;6.918;2022-11-30T02:02:39;101523.53;;;7.12;83.48
11643;BME280;5877;50.930;6.918;2022-11-30T02:07:33;101580.44;;;7.41;83.84
11643;BME280;5877;50.930;6.918;2022-11-30T02:12:50;101529.13;;;6.93;84.25
11643;BME280;5877;50.930;6.918;2022-11-30T02:18:07;101602.81;;;7.35;84.91
11643;BME280;5877;50.930;6.918;2022-11-30T02:28:29;101588.25;;;7.49;85.32
11643;BME280;5877;50.930;6.918;2022-11-30T02:33:25;101564.78;;;7.33;85.40
11643;BME280;5877;50.930;6.918;2022-11-30T02:38:21;101581.09;;;7.35;86.19
11643;BME280;5877;50.930;6.918;2022-11-30T02:43:13;101524.03;;;6.99;86.49
11643;BME280;5877;50.930;6.918;2022-11-30T02:48:08;101585.69;;;7.25;86.62
11643;BME280;5877;50.930;6.918;2022-11-30T02:53:00;101504.34;;;6.80;86.63
11643;BME280;5877;50.930;6.918;2022-11-30T02:57:52;101483.16;;;6.67;86.96
11643;BME280;5877;50.930;6.918;2022-11-30T03:02:44;101587.63;;;7.31;86.72
11643;BME280;5877;50.930;6.918;2022-11-30T03:07:36;101577.16;;;7.39;86.46
11643;BME280;5877;50.930;6.918;2022-11-30T03:12:28;101541.78;;;7.20;86.18
11643;BME280;5877;50.930;6.918;2022-11-30T03:17:19;101544.69;;;7.33;86.77
11643;BME280;5877;50.930;6.918;2022-11-30T03:22:11;101575.69;;;7.44;86.61
11643;BME280;5877;50.930;6.918;2022-11-30T03:27:03;101599.97;;;7.61;86.34
11643;BME280;5877;50.930;6.918;2022-11-30T03:31:54;101600.13;;;7.60;86.20
11643;BME280;5877;50.930;6.918;2022-11-30T03:36:46;101445.03;;;6.50;86.39
11643;BME280;5877;50.930;6.918;2022-11-30T03:41:37;101609.28;;;7.56;86.28
11643;BME280;5877;50.930;6.918;2022-11-30T03:46:29;101615.47;;;7.71;86.49
11643;BME280;5877;50.930;6.918;2022-11-30T03:51:21;101617.09;;;7.72;85.73
11643;BME280;5877;50.930;6.918;2022-11-30T03:56:12;101485.41;;;6.87;85.77
11643;BME280;5877;50.930;6.918;2022-11-30T04:01:10;101617.25;;;7.70;85.70
11643;BME280;5877;50.930;6.918;2022-11-30T04:06:03;101565.25;;;7.44;85.67
11643;BME280;5877;50.930;6.918;2022-11-30T04:10:57;101599.28;;;7.67;85.19
11643;BME280;5877;50.930;6.918;2022-11-30T04:15:50;101563.59;;;7.52;85.59
11643;BME280;5877;50.930;6.918;2022-11-30T04:20:42;101604.97;;;7.79;85.35
11643;BME280;5877;50.930;6.918;2022-11-30T04:25:36;101598.94;;;7.78;85.98
11643;BME280;5877;50.930;6.918;2022-11-30T04:30:28;101604.19;;;7.70;86.32
11643;BME280;5877;50.930;6.918;2022-11-30T04:35:20;101587.06;;;7.60;86.87
11643;BME280;5877;50.930;6.918;2022-11-30T04:40:12;101596.06;;;7.57;87.31
11643;BME280;5877;50.930;6.918;2022-11-30T04:45:04;101592.19;;;7.45;87.60
11643;BME280;5877;50.930;6.918;2022-11-30T04:49:55;101602.78;;;7.52;88.43
11643;BME280;5877;50.930;6.918;2022-11-30T04:54:47;101589.75;;;7.35;88.10
11643;BME280;5877;50.930;6.918;2022-11-30T04:59:39;101533.19;;;7.03;87.45
11643;BME280;5877;50.930;6.918;2022-11-30T05:04:31;101585.81;;;7.39;88.05
11643;BME280;5877;50.930;6.918;2022-11-30T05:09:22;101498.13;;;6.90;87.75
11643;BME280;5877;50.930;6.918;2022-11-30T05:14:14;101611.88;;;7.64;87.17
11643;BME280;5877;50.930;6.918;2022-11-30T05:19:05;101614.97;;;7.67;85.96
11643;BME280;5877;50.930;6.918;2022-11-30T05:23:57;101617.25;;;7.70;85.57
11643;BME280;5877;50.930;6.918;2022-11-30T05:28:49;101605.38;;;7.60;84.86
11643;BME280;5877;50.930;6.918;2022-11-30T05:33:40;101625.94;;;7.63;84.90
11643;BME280;5877;50.930;6.918;2022-11-30T05:38:32;101627.56;;;7.56;84.33
11643;BME280;5877;50.930;6.918;2022-11-30T05:43:23;101629.22;;;7.48;84.86
11643;BME280;5877;50.930;6.918;2022-11-30T05:48:15;101572.16;;;7.05;85.59
11643;BME280;5877;50.930;6.918;2022-11-30T05:53:06;101625.81;;;7.24;86.27
11643;BME280;5877;50.930;6.918;2022-11-30T05:57:58;101623.22;;;7.15;87.03
11643;BME280;5877;50.930;6.918;2022-11-30T06:02:55;101610.66;;;6.95;86.77
11643;BME280;5877;50.930;6.918;2022-11-30T06:07:48;101610.81;;;6.85;87.59
11643;BME280;5877;50.930;6.918;2022-11-30T06:12:41;101631.53;;;7.03;86.84
11643;BME280;5877;50.930;6.918;2022-11-30T06:17:33;101532.88;;;6.41;86.31
11643;BME280;5877;50.930;6.918;2022-11-30T06:22:24;101635.47;;;7.07;85.78
11643;BME280;5877;50.930;6.918;2022-11-30T06:27:16;101637.75;;;7.10;85.46
11643;BME280;5877;50.930;6.918;2022-11-30T06:32:07;101539.88;;;6.57;85.33
11643;BME280;5877;50.930;6.918;2022-11-30T06:36:59;101595.97;;;6.86;84.75
11643;BME280;5877;50.930;6.918;2022-11-30T06:41:51;101618.16;;;6.90;83.95
11643;BME280;5877;50.930;6.918;2022-11-30T06:46:45;101605.75;;;6.75;82.99
11643;BME280;5877;50.930;6.918;2022-11-30T06:51:36;101660.59;;;7.08;82.56
11643;BME280;5877;50.930;6.918;2022-11-30T06:56:29;101624.34;;;6.72;83.04
11643;BME280;5877;50.930;6.918;2022-11-30T07:01:21;101673.47;;;6.93;82.47
11643;BME280;5877;50.930;6.918;2022-11-30T07:06:13;101674.59;;;6.99;82.28
11643;BME280;5877;50.930;6.918;2022-11-30T07:11:06;101656.66;;;6.79;82.01
11643;BME280;5877;50.930;6.918;2022-11-30T07:15:58;101675.88;;;6.78;82.53
11643;BME280;5877;50.930;6.918;2022-11-30T07:20:49;101681.25;;;6.77;82.19
11643;BME280;5877;50.930;6.918;2022-11-30T07:25:41;101666.88;;;6.57;82.02
11643;BME280;5877;50.930;6.918;2022-11-30T07:30:51;101683.34;;;6.65;82.39
11643;BME280;5877;50.930;6.918;2022-11-30T07:35:42;101639.25;;;6.30;82.19
11643;BME280;5877;50.930;6.918;2022-11-30T07:40:34;101650.84;;;6.35;81.84
11643;BME280;5877;50.930;6.918;2022-11-30T07:45:26;101696.25;;;6.67;81.28
11643;BME280;5877;50.930;6.918;2022-11-30T07:50:17;101681.53;;;6.49;80.46
11643;BME280;5877;50.930;6.918;2022-11-30T07:55:09;101704.38;;;6.64;79.64
11643;BME280;5877;50.930;6.918;2022-11-30T08:00:01;101694.78;;;6.64;79.47
11643;BME280;5877;50.930;6.918;2022-11-30T08:05:02;101615.41;;;6.16;80.31
11643;BME280;5877;50.930;6.918;2022-11-30T08:09:54;101639.44;;;6.36;80.21
11643;BME280;5877;50.930;6.918;2022-11-30T08:14:46;101674.25;;;6.69;79.28
11643;BME280;5877;50.930;6.918;2022-11-30T08:19:57;101685.69;;;6.84;79.79
11643;BME280;5877;50.930;6.918;2022-11-30T08:24:49;101718.34;;;7.13;78.89
11643;BME280;5877;50.930;6.918;2022-11-30T08:29:40;101683.22;;;6.83;79.55
11643;BME280;5877;50.930;6.918;2022-11-30T08:34:32;101694.03;;;6.96;79.61
11643;BME280;5877;50.930;6.918;2022-11-30T08:39:24;101722.59;;;7.22;79.52
11643;BME280;5877;50.930;6.918;2022-11-30T08:44:18;101676.38;;;6.82;79.10
11643;BME280;5877;50.930;6.918;2022-11-30T08:49:09;101742.34;;;7.25;78.67
11643;BME280;5877;50.930;6.918;2022-11-30T08:54:16;101751.16;;;7.15;79.52
11643;BME280;5877;50.930;6.918;2022-11-30T08:59:08;101710.50;;;6.97;79.62
11643;BME280;5877;50.930;6.918;2022-11-30T09:03:59;101758.16;;;7.15;78.89
11643;BME280;5877;50.930;6.918;2022-11-30T09:08:53;101752.28;;;7.13;79.50
11643;BME280;5877;50.930;6.918;2022-11-30T09:13:46;101756.22;;;7.17;79.43
11643;BME280;5877;50.930;6.918;2022-11-30T09:18:38;101643.16;;;6.34;79.13
11643;BME280;5877;50.930;6.918;2022-11-30T09:23:30;101638.75;;;6.26;79.67
11643;BME280;5877;50.930;6.918;2022-11-30T09:28:21;101683.00;;;6.52;80.08
11643;BME280;5877;50.930;6.918;2022-11-30T09:33:13;101699.16;;;6.64;80.05
11643;BME280;5877;50.930;6.918;2022-11-30T09:38:05;101772.50;;;7.11;79.93
11643;BME280;5877;50.930;6.918;2022-11-30T09:53:26;101654.56;;;6.33;80.46
11643;BME280;5877;50.930;6.918;2022-11-30T09:58:45;101773.34;;;7.11;79.37
11643;BME280;5877;50.930;6.918;2022-11-30T10:03:38;101573.09;;;5.88;79.06
11643;BME280;5877;50.930;6.918;2022-11-30T10:14:00;101762.25;;;7.18;78.98
11643;BME280;5877;50.930;6.918;2022-11-30T10:19:16;101723.19;;;6.83;78.62
11643;BME280;5877;50.930;6.918;2022-11-30T10:29:39;101753.44;;;7.19;79.12
11643;BME280;5877;50.930;6.918;2022-11-30T10:34:34;101757.03;;;7.18;79.06
11643;BME280;5877;50.930;6.918;2022-11-30T10:39:30;101730.91;;;7.01;79.04
11643;BME280;5877;50.930;6.918;2022-11-30T10:44:27;101733.69;;;7.16;79.41
11643;BME280;5877;50.930;6.918;2022-11-30T10:49:21;101686.97;;;6.80;78.58
11643;BME280;5877;50.930;6.918;2022-11-30T10:54:16;101754.44;;;7.26;78.41
11643;BME280;5877;50.930;6.918;2022-11-30T10:59:18;101751.47;;;7.21;79.07
11643;BME280;5877;50.930;6.918;2022-11-30T11:04:16;101706.09;;;6.97;78.78
11643;BME280;5877;50.930;6.918;2022-11-30T11:14:25;101754.75;;;7.23;79.51
11643;BME280;5877;50.930;6.918;2022-11-30T11:24:15;101685.84;;;6.83;79.87
11643;BME280;5877;50.930;6.918;2022-11-30T11:29:22;101605.53;;;6.36;79.82
11643;BME280;5877;50.930;6.918;2022-11-30T11:34:28;101671.94;;;6.66;79.53
11643;BME280;5877;50.930;6.918;2022-11-30T11:39:25;101747.22;;;7.11;80.22
11643;BME280;5877;50.930;6.918;2022-11-30T11:44:19;101751.47;;;7.12;80.31
11643;BME280;5877;50.930;6.918;2022-11-30T11:49:42;101759.16;;;7.14;80.63
11643;BME280;5877;50.930;6.918;2022-11-30T11:54:35;101766.97;;;7.14;80.80
11643;BME280;5877;50.930;6.918;2022-11-30T11:59:47;101753.44;;;7.19;80.49
11643;BME280;5877;50.930;6.918;2022-11-30T12:04:47;101753.13;;;7.22;80.21
11643;BME280;5877;50.930;6.918;2022-11-30T12:09:50;101754.91;;;7.29;80.28
11643;BME280;5877;50.930;6.918;2022-11-30T12:14:43;101720.94;;;7.05;80.11
11643;BME280;5877;50.930;6.918;2022-11-30T12:30:21;101751.31;;;7.14;80.58
11643;BME280;5877;50.930;6.918;2022-11-30T12:40:32;101748.72;;;7.22;80.94
11643;BME280;5877;50.930;6.918;2022-11-30T12:45:42;101751.66;;;7.19;80.56
11643;BME280;5877;50.930;6.918;2022-11-30T12:55:45;101755.88;;;7.20;80.99
11643;BME280;5877;50.930;6.918;2022-11-30T13:05:43;101697.09;;;6.83;81.49
11643;BME280;5877;50.930;6.918;2022-11-30T13:10:45;101756.53;;;7.06;81.90
11643;BME280;5877;50.930;6.918;2022-11-30T13:15:38;101729.88;;;6.86;82.26
11643;BME280;5877;50.930;6.918;2022-11-30T13:20:43;101754.22;;;7.03;82.00
11643;BME280;5877;50.930;6.918;2022-11-30T13:26:15;101762.41;;;7.08;82.02
11643;BME280;5877;50.930;6.918;2022-11-30T13:31:18;101751.47;;;7.04;82.26
11643;BME280;5877;50.930;6.918;2022-11-30T13:36:32;101750.00;;;7.10;82.21
11643;BME280;5877;50.930;6.918;2022-11-30T13:41:24;101700.34;;;6.77;81.50
11643;BME280;5877;50.930;6.918;2022-11-30T13:46:19;101753.25;;;7.12;81.93
11643;BME280;5877;50.930;6.918;2022-11-30T13:51:32;101581.47;;;6.00;81.37
11643;BME280;5877;50.930;6.918;2022-11-30T13:56:32;101752.91;;;6.99;81.74
11643;BME280;5877;50.930;6.918;2022-11-30T14:01:26;101722.34;;;6.75;81.72
11643;BME280;5877;50.930;6.918;2022-11-30T14:06:53;101762.72;;;7.05;81.47
11643;BME280;5877;50.930;6.918;2022-11-30T14:11:49;101765.50;;;7.11;81.34
11643;BME280;5877;50.930;6.918;2022-11-30T14:16:41;101766.63;;;7.09;81.43
11643;BME280;5877;50.930;6.918;2022-11-30T14:21:34;101778.72;;;7.18;81.96
11643;BME280;5877;50.930;6.918;2022-11-30T14:26:37;101784.94;;;7.25;81.53
11643;BME280;5877;50.930;6.918;2022-11-30T14:31:36;101783.31;;;7.24;80.87
11643;BME280;5877;50.930;6.918;2022-11-30T14:36:36;101784.44;;;7.22;81.33
11643;BME280;5877;50.930;6.918;2022-11-30T14:41:30;101736.75;;;6.95;81.16
11643;BME280;5877;50.930;6.918;2022-11-30T14:46:23;101789.19;;;7.18;80.66
11643;BME280;5877;50.930;6.918;2022-11-30T14:51:17;101789.81;;;7.12;80.87
11643;BME280;5877;50.930;6.918;2022-11-30T14:56:33;101776.41;;;6.99;81.10
11643;BME280;5877;50.930;6.918;2022-11-30T15:01:29;101708.94;;;6.62;81.04
11643;BME280;5877;50.930;6.918;2022-11-30T15:06:28;101723.81;;;6.69;81.66
11643;BME280;5877;50.930;6.918;2022-11-30T15:11:21;101792.09;;;7.07;81.89
11643;BME280;5877;50.930;6.918;2022-11-30T15:16:26;101787.84;;;7.06;81.81
11643;BME280;5877;50.930;6.918;2022-11-30T15:21:30;101788.50;;;7.08;82.64
11643;BME280;5877;50.930;6.918;2022-11-30T15:26:54;101695.34;;;6.42;81.71
11643;BME280;5877;50.930;6.918;2022-11-30T15:31:44;101767.91;;;6.89;81.74
11643;BME280;5877;50.930;6.918;2022-11-30T15:36:39;101789.13;;;6.94;82.34
11643;BME280;5877;50.930;6.918;2022-11-30T15:41:32;101805.47;;;7.04;82.75
11643;BME280;5877;50.930;6.918;2022-11-30T15:46:38;101801.22;;;7.03;82.79
11643;BME280;5877;50.930;6.918;2022-11-30T15:51:39;101810.19;;;7.08;82.07
11643;BME280;5877;50.930;6.918;2022-11-30T15:56:31;101725.03;;;6.49;82.54
11643;BME280;5877;50.930;6.918;2022-11-30T16:01:22;101639.44;;;5.94;82.82
11643;BME280;5877;50.930;6.918;2022-11-30T16:06:18;101818.50;;;7.04;82.49
11643;BME280;5877;50.930;6.918;2022-11-30T16:11:10;101813.78;;;7.07;82.97
11643;BME280;5877;50.930;6.918;2022-11-30T16:16:10;101762.31;;;6.75;82.86
11643;BME280;5877;50.930;6.918;2022-11-30T16:21:02;101797.06;;;6.84;82.72
11643;BME280;5877;50.930;6.918;2022-11-30T16:25:54;101821.94;;;7.04;82.82
11643;BME280;5877;50.930;6.918;2022-11-30T16:30:47;101827.94;;;6.97;82.94
11643;BME280;5877;50.930;6.918;2022-11-30T16:35:56;101671.25;;;6.06;83.28
11643;BME280;5877;50.930;6.918;2022-11-30T16:40:48;101656.94;;;5.84;83.36
11643;BME280;5877;50.930;6.918;2022-11-30T16:45:40;101830.06;;;6.93;83.74
11643;BME280;5877;50.930;6.918;2022-11-30T16:50:35;101702.88;;;6.11;83.67
11643;BME280;5877;50.930;6.918;2022-11-30T16:55:32;101842.13;;;6.94;83.37
11643;BME280;5877;50.930;6.918;2022-11-30T17:00:26;101768.56;;;6.48;83.28
11643;BME280;5877;50.930;6.918;2022-11-30T17:05:18;101846.69;;;6.92;83.51
11643;BME280;5877;50.930;6.918;2022-11-30T17:10:11;101850.44;;;6.90;83.48
11643;BME280;5877;50.930;6.918;2022-11-30T17:15:04;101800.56;;;6.59;84.15
11643;BME280;5877;50.930;6.918;2022-11-30T17:19:57;101794.38;;;6.60;83.11
11643;BME280;5877;50.930;6.918;2022-11-30T17:24:49;101857.78;;;6.94;83.22
11643;BME280;5877;50.930;6.918;2022-11-30T17:29:41;101833.25;;;6.79;83.40
11643;BME280;5877;50.930;6.918;2022-11-30T17:34:33;101807.06;;;6.55;83.86
11643;BME280;5877;50.930;6.918;2022-11-30T17:39:25;101862.81;;;6.88;83.05
11643;BME280;5877;50.930;6.918;2022-11-30T17:44:16;101771.91;;;6.33;83.16
11643;BME280;5877;50.930;6.918;2022-11-30T17:49:08;101868.06;;;6.96;82.62
11643;BME280;5877;50.930;6.918;2022-11-30T17:54:02;101873.94;;;6.98;83.03
11643;BME280;5877;50.930;6.918;2022-11-30T17:58:54;101835.00;;;6.70;82.83
11643;BME280;5877;50.930;6.918;2022-11-30T18:03:46;101881.28;;;6.94;83.00
11643;BME280;5877;50.930;6.918;2022-11-30T18:08:38;101828.78;;;6.63;81.99
11643;BME280;5877;50.930;6.918;2022-11-30T18:13:30;101839.88;;;6.65;82.29
11643;BME280;5877;50.930;6.918;2022-11-30T18:18:22;101776.72;;;6.19;82.95
11643;BME280;5877;50.930;6.918;2022-11-30T18:23:13;101842.03;;;6.70;82.38
11643;BME280;5877;50.930;6.918;2022-11-30T18:28:05;101869.63;;;6.80;81.92
11643;BME280;5877;50.930;6.918;2022-11-30T18:32:56;101867.03;;;6.80;81.64
11643;BME280;5877;50.930;6.918;2022-11-30T18:37:48;101891.88;;;6.93;82.01
11643;BME280;5877;50.930;6.918;2022-11-30T18:42:40;101895.00;;;6.96;81.78
11643;BME280;5877;50.930;6.918;2022-11-30T18:47:31;101890.72;;;6.87;82.44
11643;BME280;5877;50.930;6.918;2022-11-30T18:52:23;101845.22;;;6.56;81.96
11643;BME280;5877;50.930;6.918;2022-11-30T18:57:15;101903.13;;;6.93;82.31
11643;BME280;5877;50.930;6.918;2022-11-30T19:02:07;101754.44;;;5.99;81.89
11643;BME280;5877;50.930;6.918;2022-11-30T19:06:59;101808.09;;;6.36;81.84
11643;BME280;5877;50.930;6.918;2022-11-30T19:11:50;101816.28;;;6.41;82.05
11643;BME280;5877;50.930;6.918;2022-11-30T19:16:43;101898.25;;;6.98;82.34
11643;BME280;5877;50.930;6.918;2022-11-30T19:21:35;101853.91;;;6.64;81.92
11643;BME280;5877;50.930;6.918;2022-11-30T19:26:26;101808.72;;;6.30;81.69
11643;BME280;5877;50.930;6.918;2022-11-30T19:31:19;101906.25;;;6.97;81.94
11643;BME280;5877;50.930;6.918;2022-11-30T19:36:19;101911.16;;;7.00;82.11
11643;BME280;5877;50.930;6.918;2022-11-30T19:41:12;101861.22;;;6.61;81.62
11643;BME280;5877;50.930;6.918;2022-11-30T19:46:06;101869.91;;;6.69;82.18
11643;BME280;5877;50.930;6.918;2022-11-30T19:50:58;101918.63;;;6.95;82.18
11643;BME280;5877;50.930;6.918;2022-11-30T19:55:50;101922.53;;;6.91;81.70
11643;BME280;5877;50.930;6.918;2022-11-30T20:00:44;101854.88;;;6.37;82.26
11643;BME280;5877;50.930;6.918;2022-11-30T20:05:36;101914.66;;;6.82;81.83
11643;BME280;5877;50.930;6.918;2022-11-30T20:10:28;101928.06;;;6.88;82.19
11643;BME280;5877;50.930;6.918;2022-11-30T20:15:22;101802.44;;;6.14;81.81
11643;BME280;5877;50.930;6.918;2022-11-30T20:20:14;101933.69;;;7.01;82.02
11643;BME280;5877;50.930;6.918;2022-11-30T20:25:06;101926.81;;;7.00;81.90
11643;BME280;5877;50.930;6.918;2022-11-30T20:29:57;101888.88;;;6.79;81.79
11643;BME280;5877;50.930;6.918;2022-11-30T20:34:49;101899.94;;;6.73;82.04
11643;BME280;5877;50.930;6.918;2022-11-30T20:39:41;101927.25;;;6.87;82.23
11643;BME280;5877;50.930;6.918;2022-11-30T20:44:36;101928.72;;;6.90;81.91
11643;BME280;5877;50.930;6.918;2022-11-30T20:49:28;101931.94;;;6.83;81.84
11643;BME280;5877;50.930;6.918;2022-11-30T20:54:19;101912.63;;;6.68;82.29
11643;BME280;5877;50.930;6.918;2022-11-30T20:59:13;101929.66;;;6.80;82.21
11643;BME280;5877;50.930;6.918;2022-11-30T21:04:05;101801.72;;;6.04;81.91
11643;BME280;5877;50.930;6.918;2022-11-30T21:08:57;101909.03;;;6.69;82.02
11643;BME280;5877;50.930;6.918;2022-11-30T21:13:50;101913.63;;;6.75;81.42
11643;BME280;5877;50.930;6.918;2022-11-30T21:18:43;101936.75;;;6.96;81.35
11643;BME280;5877;50.930;6.918;2022-11-30T21:23:35;101935.72;;;6.89;81.02
11643;BME280;5877;50.930;6.918;2022-11-30T21:28:27;101935.44;;;6.92;81.61
11643;BME280;5877;50.930;6.918;2022-11-30T21:33:26;101937.16;;;6.83;81.63
11643;BME280;5877;50.930;6.918;2022-11-30T21:38:18;101934.50;;;6.75;80.97
11643;BME280;5877;50.930;6.918;2022-11-30T21:43:09;101929.56;;;6.64;81.54
11643;BME280;5877;50.930;6.918;2022-11-30T21:48:02;101844.38;;;6.03;82.12
11643;BME280;5877;50.930;6.918;2022-11-30T21:52:54;101927.69;;;6.57;81.11
11643;BME280;5877;50.930;6.918;2022-11-30T21:57:46;101935.00;;;6.53;81.93
11643;BME280;5877;50.930;6.918;2022-11-30T22:02:37;101928.47;;;6.49;81.86
11643;BME280;5877;50.930;6.918;2022-11-30T22:07:29;101933.44;;;6.60;81.55
11643;BME280;5877;50.930;6.918;2022-11-30T22:12:24;101912.47;;;6.44;81.28
11643;BME280;5877;50.930;6.918;2022-11-30T22:17:15;101885.28;;;6.29;81.53
11643;BME280;5877;50.930;6.918;2022-11-30T22:22:07;101940.75;;;6.57;81.16
11643;BME280;5877;50.930;6.918;2022-11-30T22:26:59;101930.31;;;6.57;81.52
11643;BME280;5877;50.930;6.918;2022-11-30T22:31:52;101932.97;;;6.65;81.31
11643;BME280;5877;50.930;6.918;2022-11-30T22:36:45;101845.72;;;6.07;80.87
11643;BME280;5877;50.930;6.918;2022-11-30T22:41:38;101935.44;;;6.66;80.70
11643;BME280;5877;50.930;6.918;2022-11-30T22:46:32;101941.47;;;6.67;80.68
11643;BME280;5877;50.930;6.918;2022-11-30T22:51:26;101946.38;;;6.70;80.88
11643;BME280;5877;50.930;6.918;2022-11-30T22:56:20;101910.81;;;6.43;80.47
11643;BME280;5877;50.930;6.918;2022-11-30T23:01:18;101959.56;;;6.68;80.58
11643;BME280;5877;50.930;6.918;2022-11-30T23:06:11;101714.66;;;5.28;80.70
11643;BME280;5877;50.930;6.918;2022-11-30T23:11:08;101945.72;;;6.68;80.46
11643;BME280;5877;50.930;6.918;2022-11-30T23:16:01;101946.47;;;6.60;80.54
11643;BME280;5877;50.930;6.918;2022-11-30T23:20:56;101871.16;;;6.13;81.10
11643;BME280;5877;50.930;6.918;2022-11-30T23:25:53;101936.03;;;6.60;80.75
11643;BME280;5877;50.930;6.918;2022-11-30T23:30:45;101946.63;;;6.59;80.87
11643;BME280;5877;50.930;6.918;2022-11-30T23:35:41;101689.56;;;5.01;80.75
11643;BME280;5877;50.930;6.918;2022-11-30T23:40:33;101879.56;;;6.25;80.79
11643;BME280;5877;50.930;6.918;2022-11-30T23:45:25;101942.38;;;6.58;80.35
11643;BME280;5877;50.930;6.918;2022-11-30T23:50:16;101869.75;;;6.19;80.57
11643;BME280;5877;50.930;6.918;2022-11-30T23:55:08;101934.09;;;6.62;80.96
